createdAt,value
2022-08-18T00:02:04.582Z,-61
2022-08-18T00:04:43.406Z,-62
2022-08-18T00:07:32.254Z,-62
2022-08-18T00:10:01.932Z,-62
2022-08-18T00:12:41.185Z,-61
2022-08-18T00:15:14.273Z,-62
2022-08-18T00:17:42.225Z,-61
2022-08-18T00:20:23.999Z,-61
2022-08-18T00:22:56.564Z,-62
2022-08-18T00:25:25.022Z,-62
2022-08-18T00:27:52.386Z,-61
2022-08-18T00:30:22.000Z,-61
2022-08-18T00:32:55.865Z,-62
2022-08-18T00:35:37.836Z,-62
2022-08-18T00:38:08.862Z,-61
2022-08-18T00:40:53.685Z,-62
2022-08-18T00:43:49.052Z,-61
2022-08-18T00:46:34.053Z,-61
2022-08-18T00:49:02.773Z,-61
2022-08-18T00:51:54.090Z,-61
2022-08-18T00:54:33.201Z,-62
2022-08-18T00:57:07.802Z,-62
2022-08-18T01:00:03.486Z,-62
2022-08-18T01:02:46.627Z,-62
2022-08-18T01:05:41.160Z,-61
2022-08-18T01:08:14.468Z,-61
2022-08-18T01:10:43.137Z,-61
2022-08-18T01:13:11.444Z,-61
2022-08-18T01:15:40.388Z,-62
2022-08-18T01:18:33.213Z,-67
2022-08-18T01:22:03.057Z,-67
2022-08-18T01:24:55.843Z,-68
2022-08-18T01:27:23.468Z,-67
2022-08-18T01:29:51.385Z,-67
2022-08-18T01:32:24.097Z,-67
2022-08-18T01:34:52.817Z,-67
2022-08-18T01:37:24.377Z,-68
2022-08-18T01:41:23.718Z,-67
2022-08-18T01:42:43.407Z,-67
2022-08-18T01:45:15.125Z,-67
2022-08-18T01:47:48.057Z,-68
2022-08-18T01:50:17.739Z,-68
2022-08-18T01:52:46.260Z,-68
2022-08-18T01:55:14.594Z,-67
2022-08-18T01:57:43.194Z,-67
2022-08-18T02:00:16.901Z,-68
2022-08-18T02:02:44.930Z,-67
2022-08-18T02:05:31.577Z,-67
2022-08-18T02:07:59.314Z,-67
2022-08-18T02:10:27.592Z,-67
2022-08-18T02:12:55.866Z,-68
2022-08-18T02:15:23.199Z,-67
2022-08-18T02:17:50.780Z,-67
2022-08-18T02:20:20.141Z,-67
2022-08-18T02:22:49.430Z,-67
2022-08-18T02:25:18.413Z,-67
2022-08-18T02:27:46.575Z,-68
2022-08-18T02:30:19.057Z,-68
2022-08-18T02:32:46.424Z,-68
2022-08-18T02:35:13.848Z,-68
2022-08-18T02:37:43.383Z,-68
2022-08-18T02:40:15.313Z,-68
2022-08-18T02:42:45.487Z,-68
2022-08-18T02:45:14.584Z,-68
2022-08-18T02:47:44.309Z,-67
2022-08-18T02:50:13.897Z,-67
2022-08-18T02:52:41.459Z,-68
2022-08-18T02:55:10.489Z,-68
2022-08-18T02:57:48.186Z,-67
2022-08-18T03:00:19.181Z,-67
2022-08-18T03:02:53.471Z,-68
2022-08-18T03:05:21.023Z,-67
2022-08-18T03:07:50.360Z,-67
2022-08-18T03:10:32.483Z,-67
2022-08-18T03:13:02.329Z,-67
2022-08-18T03:15:30.623Z,-67
2022-08-18T03:17:58.252Z,-68
2022-08-18T03:20:31.044Z,-67
2022-08-18T03:23:05.630Z,-68
2022-08-18T03:25:44.710Z,-67
2022-08-18T03:28:13.175Z,-67
2022-08-18T03:30:40.713Z,-67
2022-08-18T03:33:08.116Z,-68
2022-08-18T03:35:37.569Z,-67
2022-08-18T03:38:05.810Z,-68
2022-08-18T03:40:33.448Z,-67
2022-08-18T03:43:50.358Z,-68
2022-08-18T03:45:55.856Z,-68
2022-08-18T03:48:23.318Z,-68
2022-08-18T03:50:50.617Z,-67
2022-08-18T03:53:18.625Z,-67
2022-08-18T03:55:45.990Z,-67
2022-08-18T03:58:13.709Z,-67
2022-08-18T04:00:41.792Z,-67
2022-08-18T04:03:11.387Z,-67
2022-08-18T04:05:41.725Z,-67
2022-08-18T04:08:09.072Z,-67
2022-08-18T04:10:36.624Z,-67
2022-08-18T04:13:05.540Z,-67
2022-08-18T04:15:33.722Z,-68
2022-08-18T04:18:08.430Z,-67
2022-08-18T04:20:36.396Z,-68
2022-08-18T04:23:03.730Z,-67
2022-08-18T04:25:33.184Z,-67
2022-08-18T04:28:03.576Z,-68
2022-08-18T04:30:31.188Z,-65
2022-08-18T04:32:58.576Z,-64
2022-08-18T04:35:25.996Z,-65
2022-08-18T04:37:53.568Z,-65
2022-08-18T04:40:25.220Z,-65
2022-08-18T04:42:52.743Z,-64
2022-08-18T04:45:20.054Z,-64
2022-08-18T04:47:49.019Z,-65
2022-08-18T04:50:16.455Z,-64
2022-08-18T04:53:02.887Z,-64
2022-08-18T04:55:30.308Z,-64
2022-08-18T04:57:59.419Z,-64
2022-08-18T05:00:26.771Z,-65
2022-08-18T05:02:56.203Z,-65
2022-08-18T05:05:24.514Z,-65
2022-08-18T05:07:51.986Z,-65
2022-08-18T05:10:19.428Z,-65
2022-08-18T05:12:48.821Z,-64
2022-08-18T05:15:17.809Z,-64
2022-08-18T05:17:45.204Z,-64
2022-08-18T05:20:15.434Z,-65
2022-08-18T05:22:45.506Z,-64
2022-08-18T05:25:14.421Z,-64
2022-08-18T05:27:43.868Z,-64
2022-08-18T05:30:14.998Z,-64
2022-08-18T05:32:49.639Z,-64
2022-08-18T05:35:33.304Z,-64
2022-08-18T05:39:04.082Z,-64
2022-08-18T05:41:37.722Z,-65
2022-08-18T05:44:09.462Z,-64
2022-08-18T05:47:06.601Z,-64
2022-08-18T05:49:36.222Z,-64
2022-08-18T05:52:48.825Z,-65
2022-08-18T05:56:24.272Z,-63
2022-08-18T05:58:58.120Z,-65
2022-08-18T06:01:41.456Z,-64
2022-08-18T06:04:42.650Z,-64
2022-08-18T06:07:55.658Z,-64
2022-08-18T06:10:23.717Z,-65
2022-08-18T06:12:58.548Z,-67
2022-08-18T06:16:12.374Z,-67
2022-08-18T06:19:24.986Z,-67
2022-08-18T06:22:55.265Z,-66
2022-08-18T06:25:45.973Z,-66
2022-08-18T06:28:16.813Z,-66
2022-08-18T06:31:18.017Z,-66
2022-08-18T06:34:20.361Z,-66
2022-08-18T06:37:07.219Z,-66
2022-08-18T06:39:52.804Z,-67
2022-08-18T06:42:30.975Z,-67
2022-08-18T06:45:20.099Z,-67
2022-08-18T06:48:37.578Z,-67
2022-08-18T06:51:08.020Z,-67
2022-08-18T06:54:27.777Z,-67
2022-08-18T06:56:57.987Z,-67
2022-08-18T06:59:33.864Z,-67
2022-08-18T07:02:49.041Z,-67
2022-08-18T07:05:32.207Z,-67
2022-08-18T07:08:30.885Z,-67
2022-08-18T07:11:17.651Z,-69
2022-08-18T07:14:14.945Z,-69
2022-08-18T07:17:00.080Z,-68
2022-08-18T07:19:33.494Z,-69
2022-08-18T07:22:21.125Z,-69
2022-08-18T07:25:05.605Z,-69
2022-08-18T07:27:52.830Z,-69
2022-08-18T07:30:20.192Z,-69
2022-08-18T07:33:21.915Z,-69
2022-08-18T07:36:05.793Z,-69
2022-08-18T07:39:10.713Z,-69
2022-08-18T07:41:52.529Z,-69
2022-08-18T07:45:04.746Z,-69
2022-08-18T07:48:40.452Z,-69
2022-08-18T07:51:43.428Z,-69
2022-08-18T07:55:00.201Z,-69
2022-08-18T07:57:54.554Z,-69
2022-08-18T08:00:58.678Z,-69
2022-08-18T08:03:58.337Z,-69
2022-08-18T08:07:12.991Z,-69
2022-08-18T08:10:30.388Z,-69
2022-08-18T08:14:26.120Z,-69
2022-08-18T08:17:49.621Z,-68
2022-08-18T08:21:06.229Z,-69
2022-08-18T08:24:09.861Z,-69
2022-08-18T08:27:26.538Z,-69
2022-08-18T08:30:16.670Z,-69
2022-08-18T08:33:36.070Z,-68
2022-08-18T08:36:27.640Z,-68
2022-08-18T08:39:26.874Z,-68
2022-08-18T08:42:30.264Z,-68
2022-08-18T08:45:04.163Z,-69
2022-08-18T08:48:17.742Z,-69
2022-08-18T08:51:30.194Z,-69
2022-08-18T08:54:37.161Z,-69
2022-08-18T08:57:05.756Z,-69
2022-08-18T08:59:39.528Z,-68
2022-08-18T09:02:08.687Z,-68
2022-08-18T09:05:08.249Z,-69
2022-08-18T09:08:11.195Z,-68
2022-08-18T09:11:26.703Z,-68
2022-08-18T09:14:33.337Z,-68
2022-08-18T09:17:54.925Z,-63
2022-08-18T09:21:31.137Z,-67
2022-08-18T09:24:53.065Z,-66
2022-08-18T09:28:10.430Z,-69
2022-08-18T09:31:07.267Z,-66
2022-08-18T09:33:48.397Z,-67
2022-08-18T09:36:40.993Z,-67
2022-08-18T09:39:54.806Z,-67
2022-08-18T09:42:50.635Z,-66
2022-08-18T09:46:00.226Z,-67
2022-08-18T09:48:43.303Z,-67
2022-08-18T09:51:19.257Z,-66
2022-08-18T09:53:46.421Z,-67
2022-08-18T09:56:56.631Z,-66
2022-08-18T09:59:34.582Z,-67
2022-08-18T10:02:33.960Z,-66
2022-08-18T10:05:19.729Z,-67
2022-08-18T10:08:07.969Z,-67
2022-08-18T10:11:08.728Z,-66
2022-08-18T10:14:37.921Z,-67
2022-08-18T10:17:50.426Z,-67
2022-08-18T10:20:33.903Z,-67
2022-08-18T10:23:01.836Z,-66
2022-08-18T10:25:46.409Z,-67
2022-08-18T10:28:57.298Z,-67
2022-08-18T10:31:27.576Z,-67
2022-08-18T10:37:02.688Z,-67
2022-08-18T10:39:41.784Z,-67
2022-08-18T10:43:46.152Z,-67
2022-08-18T10:46:33.128Z,-67
2022-08-18T10:49:12.936Z,-67
2022-08-18T10:52:29.461Z,-67
2022-08-18T10:55:48.227Z,-67
2022-08-18T11:03:42.706Z,-66
2022-08-18T11:06:14.673Z,-67
2022-08-18T11:08:58.936Z,-67
2022-08-18T11:11:52.624Z,-67
2022-08-18T11:14:52.060Z,-68
2022-08-18T11:18:14.238Z,-67
2022-08-18T11:20:44.080Z,-67
2022-08-18T11:23:18.212Z,-67
2022-08-18T11:25:46.060Z,-67
2022-08-18T11:28:30.429Z,-66
2022-08-18T11:31:00.191Z,-67
2022-08-18T11:33:27.752Z,-67
2022-08-18T11:36:01.212Z,-67
2022-08-18T11:38:31.740Z,-67
2022-08-18T11:41:24.035Z,-67
2022-08-18T11:44:02.578Z,-67
2022-08-18T11:49:36.197Z,-67
2022-08-18T11:52:29.709Z,-67
2022-08-18T11:55:23.982Z,-67
2022-08-18T11:57:59.234Z,-67
2022-08-18T12:00:44.114Z,-67
2022-08-18T12:03:44.620Z,-67
2022-08-18T12:06:30.721Z,-66
2022-08-18T12:12:30.500Z,-67
2022-08-18T12:15:43.992Z,-67
2022-08-18T12:18:26.149Z,-67
2022-08-18T12:20:58.944Z,-67
2022-08-18T12:23:28.014Z,-67
2022-08-18T12:26:06.294Z,-67
2022-08-18T12:28:53.600Z,-67
2022-08-18T12:31:42.767Z,-64
2022-08-18T12:34:24.942Z,-64
2022-08-18T12:37:01.834Z,-64
2022-08-18T12:39:31.234Z,-68
2022-08-18T12:41:59.612Z,-70
2022-08-18T12:44:30.386Z,-61
2022-08-18T12:46:59.831Z,-70
2022-08-18T12:49:27.224Z,-70
2022-08-18T12:51:55.826Z,-69
2022-08-18T12:54:23.355Z,-69
2022-08-18T12:56:57.638Z,-68
2022-08-18T12:59:26.372Z,-68
2022-08-18T13:02:00.268Z,-69
2022-08-18T13:04:28.507Z,-68
2022-08-18T13:07:02.152Z,-69
2022-08-18T13:09:53.080Z,-68
2022-08-18T13:12:24.069Z,-68
2022-08-18T13:14:54.866Z,-69
2022-08-18T13:17:32.210Z,-68
2022-08-18T13:20:16.944Z,-64
2022-08-18T13:22:44.598Z,-64
2022-08-18T13:25:32.808Z,-64
2022-08-18T13:28:06.495Z,-64
2022-08-18T13:30:35.508Z,-64
2022-08-18T13:33:05.781Z,-64
2022-08-18T13:35:54.819Z,-64
2022-08-18T13:38:27.195Z,-64
2022-08-18T13:41:00.711Z,-64
2022-08-18T13:43:39.194Z,-64
2022-08-18T13:46:10.473Z,-64
2022-08-18T13:48:41.747Z,-64
2022-08-18T13:51:22.481Z,-64
2022-08-18T13:53:59.343Z,-70
2022-08-18T13:56:39.807Z,-70
2022-08-18T13:59:07.334Z,-71
2022-08-18T14:01:44.175Z,-70
2022-08-18T14:04:22.249Z,-70
2022-08-18T14:06:57.479Z,-70
2022-08-18T14:09:35.978Z,-70
2022-08-18T14:12:28.270Z,-70
2022-08-18T14:14:58.882Z,-70
2022-08-18T14:17:27.462Z,-70
2022-08-18T14:20:21.105Z,-70
2022-08-18T14:23:22.057Z,-70
2022-08-18T14:26:11.067Z,-70
2022-08-18T14:28:41.147Z,-71
2022-08-18T14:31:11.782Z,-71
2022-08-18T14:33:50.277Z,-71
2022-08-18T14:36:29.427Z,-70
2022-08-18T14:39:02.229Z,-71
2022-08-18T14:41:31.387Z,-70
2022-08-18T14:44:11.973Z,-70
2022-08-18T14:46:52.485Z,-70
2022-08-18T14:49:29.304Z,-70
2022-08-18T14:52:00.361Z,-71
2022-08-18T14:54:30.637Z,-70
2022-08-18T14:57:01.752Z,-70
2022-08-18T14:59:34.650Z,-70
2022-08-18T15:02:13.284Z,-70
2022-08-18T15:04:53.290Z,-70
2022-08-18T15:07:25.847Z,-70
2022-08-18T15:10:15.172Z,-70
2022-08-18T15:12:40.807Z,-70
2022-08-18T15:15:17.920Z,-70
2022-08-18T15:17:50.136Z,-70
2022-08-18T15:20:29.456Z,-70
2022-08-18T15:23:28.156Z,-70
2022-08-18T15:25:59.070Z,-70
2022-08-18T15:28:27.497Z,-70
2022-08-18T15:33:42.441Z,-70
2022-08-18T15:36:16.107Z,-70
2022-08-18T15:38:43.680Z,-70
2022-08-18T15:41:26.543Z,-70
2022-08-18T15:43:56.235Z,-70
2022-08-18T15:46:24.691Z,-70
2022-08-18T15:48:54.820Z,-70
2022-08-18T15:51:22.612Z,-70
2022-08-18T15:53:50.909Z,-70
2022-08-18T15:56:26.219Z,-70
2022-08-18T15:58:54.301Z,-70
2022-08-18T16:01:32.153Z,-70
2022-08-18T16:04:04.206Z,-70
2022-08-18T16:06:32.675Z,-70
2022-08-18T16:09:01.827Z,-70
2022-08-18T16:11:30.104Z,-70
2022-08-18T16:13:59.136Z,-70
2022-08-18T16:16:33.280Z,-70
2022-08-18T16:19:08.121Z,-70
2022-08-18T16:21:39.785Z,-71
2022-08-18T16:24:09.429Z,-70
2022-08-18T16:26:36.846Z,-70
2022-08-18T16:29:04.716Z,-70
2022-08-18T16:31:32.880Z,-70
2022-08-18T16:34:00.192Z,-70
2022-08-18T16:36:27.580Z,-70
2022-08-18T16:38:56.145Z,-70
2022-08-18T16:41:26.747Z,-70
2022-08-18T16:43:54.453Z,-70
2022-08-18T16:46:27.419Z,-70
2022-08-18T16:48:58.478Z,-70
2022-08-18T16:51:28.875Z,-70
2022-08-18T16:53:56.165Z,-70
2022-08-18T16:56:30.227Z,-70
2022-08-18T16:59:16.815Z,-70
2022-08-18T17:02:03.575Z,-70
2022-08-18T17:04:35.790Z,-70
2022-08-18T17:07:06.155Z,-71
2022-08-18T17:09:35.012Z,-70
2022-08-18T17:12:02.793Z,-70
2022-08-18T17:14:32.464Z,-70
2022-08-18T17:17:01.675Z,-70
2022-08-18T17:19:36.897Z,-70
2022-08-18T17:22:06.429Z,-70
2022-08-18T17:24:33.743Z,-70
2022-08-18T17:27:11.940Z,-70
2022-08-18T17:30:21.736Z,-70
2022-08-18T17:33:01.209Z,-70
2022-08-18T17:35:40.004Z,-70
2022-08-18T17:38:34.222Z,-70
2022-08-18T17:41:04.366Z,-70
2022-08-18T17:46:38.936Z,-70
2022-08-18T17:50:27.308Z,-70
2022-08-18T17:53:06.333Z,-70
2022-08-18T17:56:12.423Z,-70
2022-08-18T17:59:04.288Z,-70
2022-08-18T18:01:34.421Z,-70
2022-08-18T18:04:04.079Z,-70
2022-08-18T18:06:43.482Z,-70
2022-08-18T18:09:20.768Z,-70
2022-08-18T18:11:48.111Z,-70
2022-08-18T18:14:39.546Z,-70
2022-08-18T18:17:18.431Z,-70
2022-08-18T18:19:50.699Z,-70
2022-08-18T18:22:30.547Z,-70
2022-08-18T18:25:04.665Z,-70
2022-08-18T18:27:36.860Z,-70
2022-08-18T18:30:27.965Z,-70
2022-08-18T18:33:16.813Z,-70
2022-08-18T18:35:53.453Z,-70
2022-08-18T18:38:41.436Z,-70
2022-08-18T18:41:14.713Z,-70
2022-08-18T18:43:49.076Z,-70
2022-08-18T18:46:23.086Z,-70
2022-08-18T18:49:19.099Z,-70
2022-08-18T18:52:22.807Z,-70
2022-08-18T18:55:31.261Z,-70
2022-08-18T18:59:14.127Z,-70
2022-08-18T19:02:34.481Z,-70
2022-08-18T19:05:17.589Z,-70
2022-08-18T19:08:42.412Z,-70
2022-08-18T19:11:45.508Z,-70
2022-08-18T19:14:30.009Z,-70
2022-08-18T19:17:38.889Z,-70
2022-08-18T19:20:28.505Z,-70
2022-08-18T19:23:37.490Z,-70
2022-08-18T19:26:14.329Z,-70
2022-08-18T19:29:12.088Z,-70
2022-08-18T19:32:16.516Z,-70
2022-08-18T19:34:51.380Z,-70
2022-08-18T19:37:36.272Z,-68
2022-08-18T19:41:10.966Z,-69
2022-08-18T19:44:34.881Z,-68
2022-08-18T19:47:28.881Z,-68
2022-08-18T19:50:21.696Z,-68
2022-08-18T19:53:35.727Z,-68
2022-08-18T19:57:16.197Z,-68
2022-08-18T20:00:25.349Z,-68
2022-08-18T20:04:03.391Z,-68
2022-08-18T20:06:58.944Z,-68
2022-08-18T20:10:06.121Z,-68
2022-08-18T20:12:55.776Z,-68
2022-08-18T20:15:29.183Z,-68
2022-08-18T20:18:19.552Z,-68
2022-08-18T20:21:15.743Z,-68
2022-08-18T20:24:34.509Z,-68
2022-08-18T20:27:49.415Z,-68
2022-08-18T20:31:07.248Z,-67
2022-08-18T20:33:46.834Z,-67
2022-08-18T20:36:36.626Z,-68
2022-08-18T20:39:44.356Z,-67
2022-08-18T20:42:24.509Z,-68
2022-08-18T20:45:09.255Z,-67
2022-08-18T20:48:30.481Z,-68
2022-08-18T20:51:20.228Z,-67
2022-08-18T20:54:33.240Z,-68
2022-08-18T20:57:04.156Z,-68
2022-08-18T21:00:02.141Z,-68
2022-08-18T21:02:41.039Z,-68
2022-08-18T21:05:10.584Z,-68
2022-08-18T21:08:19.776Z,-67
2022-08-18T21:11:08.347Z,-68
2022-08-18T21:13:41.488Z,-68
2022-08-18T21:16:37.995Z,-68
2022-08-18T21:19:24.772Z,-68
2022-08-18T21:22:04.467Z,-68
2022-08-18T21:24:43.595Z,-68
2022-08-18T21:27:36.003Z,-68
2022-08-18T21:30:32.404Z,-68
2022-08-18T21:32:59.763Z,-68
2022-08-18T21:35:39.431Z,-68
2022-08-18T21:38:12.913Z,-68
2022-08-18T21:40:49.716Z,-69
2022-08-18T21:43:49.143Z,-68
2022-08-18T21:46:31.073Z,-68
2022-08-18T21:49:03.947Z,-68
2022-08-18T21:51:50.072Z,-68
2022-08-18T21:54:25.159Z,-68
2022-08-18T21:57:21.948Z,-69
2022-08-18T22:00:25.353Z,-69
2022-08-18T22:03:28.218Z,-69
2022-08-18T22:06:34.773Z,-68
2022-08-18T22:09:29.649Z,-67
2022-08-18T22:12:46.797Z,-67
2022-08-18T22:15:26.224Z,-67
2022-08-18T22:18:35.180Z,-67
2022-08-18T22:21:09.266Z,-67
2022-08-18T22:24:05.771Z,-67
2022-08-18T22:26:37.945Z,-67
2022-08-18T22:29:46.376Z,-67
2022-08-18T22:32:14.272Z,-68
2022-08-18T22:34:42.229Z,-67
2022-08-18T22:37:25.837Z,-67
2022-08-18T22:40:13.392Z,-67
2022-08-18T22:42:41.798Z,-67
2022-08-18T22:45:13.939Z,-67
2022-08-18T22:47:45.246Z,-67
2022-08-18T22:50:14.291Z,-67
2022-08-18T22:52:48.971Z,-67
2022-08-18T22:55:21.979Z,-67
2022-08-18T22:57:56.060Z,-67
2022-08-18T23:00:25.543Z,-67
2022-08-18T23:02:55.019Z,-67
2022-08-18T23:05:23.485Z,-67
2022-08-18T23:07:50.985Z,-67
2022-08-18T23:10:18.992Z,-67
2022-08-18T23:12:48.616Z,-67
2022-08-18T23:15:19.488Z,-67
2022-08-18T23:17:46.808Z,-67
2022-08-18T23:20:18.333Z,-67
2022-08-18T23:22:48.217Z,-67
2022-08-18T23:25:17.642Z,-67
2022-08-18T23:27:44.980Z,-67
2022-08-18T23:30:13.790Z,-67
2022-08-18T23:32:41.261Z,-67
2022-08-18T23:35:08.756Z,-67
2022-08-18T23:37:38.488Z,-67
2022-08-18T23:40:07.870Z,-67
2022-08-18T23:42:35.257Z,-67
2022-08-18T23:45:04.608Z,-67
2022-08-18T23:47:32.099Z,-67
2022-08-18T23:49:59.439Z,-67
2022-08-18T23:52:26.805Z,-67
2022-08-18T23:54:54.225Z,-67
2022-08-18T23:57:21.539Z,-67
2022-08-18T23:59:48.855Z,-67
